Portada
METAR-TAF:

METAR-TAF

Aeropuertos :

Dodge Center Airport (Dodge Center Municipal)

Dodge Center, Minnesota, Estados Unidos

latitud: 44-01-05N, longitud: 092-49-53W, altitud: 398 m

Observación

El informe se hizo hace 29 minutos, a las 07:35 UTC
Viento calma
Temperatura 8°C
Humedad 66%
Presión 1026 hPa
Visibilidad: 16.1 km
Cielo despejado

METAR: KTOB 310735Z AUTO 00000KT 10SM CLR 08/02 A3029 RMK AO2 PWINO

Hora: 03:04 (08:04 UTC)


TAF: falta

Observaciones y pronósticos meteorológicos de más de 4000 aeropuertos (mensajes METAR y TAF).

Los puntos amarillos y rojos representan las estaciones disponibles.

Ponga el ratón en el punto deseado para ver el nombre de la estación.

Haga clic para ver las observaciones y los pronósticos meteorológicos.

Para cambiar el mapa : haga clic en los botones verdes con una cruz de color negro para hacer un zoom, en el botón verde con un guión para alejar o en las flechas verdes para mapas adyacentes.


METAR-TAF: